createdAt,value
2018-02-14T00:00:30.675Z,14.68
2018-02-14T00:02:57.349Z,12.57
2018-02-14T00:05:24.722Z,16.40
2018-02-14T00:07:52.115Z,14.70
2018-02-14T00:10:18.791Z,12.88
2018-02-14T00:12:45.455Z,14.00
2018-02-14T00:15:12.801Z,13.82
2018-02-14T00:17:40.212Z,19.98
2018-02-14T00:20:06.830Z,18.55
2018-02-14T00:22:33.442Z,19.70
2018-02-14T00:25:00.076Z,15.50
2018-02-14T00:27:26.674Z,13.02
2018-02-14T00:29:53.333Z,14.38
2018-02-14T00:32:19.948Z,12.63
2018-02-14T00:34:46.583Z,12.90
2018-02-14T00:37:13.266Z,18.65
2018-02-14T00:39:39.881Z,12.98
2018-02-14T00:42:06.462Z,18.58
2018-02-14T00:44:33.150Z,15.38
2018-02-14T00:46:59.778Z,15.10
2018-02-14T00:49:26.377Z,23.50
2018-02-14T00:51:53.787Z,20.35
2018-02-14T00:54:20.395Z,20.17
2018-02-14T00:56:46.967Z,18.42
2018-02-14T00:59:13.561Z,21.75
2018-02-14T01:01:40.246Z,22.98
2018-02-14T01:04:06.890Z,22.15
2018-02-14T01:06:33.502Z,27.25
2018-02-14T01:09:00.177Z,20.27
2018-02-14T01:11:27.526Z,21.37
2018-02-14T01:13:54.133Z,22.05
2018-02-14T01:16:20.711Z,21.42
2018-02-14T01:18:48.038Z,22.98
2018-02-14T01:21:14.675Z,23.45
2018-02-14T01:23:41.295Z,25.25
2018-02-14T01:26:07.895Z,30.70
2018-02-14T01:28:34.481Z,27.95
2018-02-14T01:31:01.117Z,29.85
2018-02-14T01:33:27.743Z,29.08
2018-02-14T01:35:54.341Z,21.80
2018-02-14T01:38:20.954Z,21.30
2018-02-14T01:40:47.570Z,27.13
2018-02-14T01:43:14.176Z,33.63
2018-02-14T01:45:41.603Z,37.00
2018-02-14T01:48:08.230Z,20.55
2018-02-14T01:50:38.965Z,26.87
2018-02-14T01:53:06.354Z,26.87
2018-02-14T01:55:32.954Z,23.52
2018-02-14T01:57:59.875Z,23.50
2018-02-14T02:00:26.534Z,22.58
2018-02-14T02:02:53.192Z,23.45
2018-02-14T02:05:19.910Z,24.17
2018-02-14T02:07:47.263Z,20.02
2018-02-14T02:10:13.918Z,23.05
2018-02-14T02:12:40.538Z,20.55
2018-02-14T02:15:07.102Z,22.67
2018-02-14T02:17:33.727Z,20.33
2018-02-14T02:20:00.363Z,15.80
2018-02-14T02:22:26.998Z,18.80
2018-02-14T02:24:53.622Z,16.40
2018-02-14T02:27:20.234Z,19.50
2018-02-14T02:29:46.852Z,19.50
2018-02-14T02:32:13.459Z,17.75
2018-02-14T02:34:40.082Z,15.75
2018-02-14T02:37:06.702Z,18.27
2018-02-14T02:39:51.555Z,21.65
2018-02-14T02:42:19.085Z,15.25
2018-02-14T02:44:46.459Z,19.50
2018-02-14T02:47:13.149Z,16.90
2018-02-14T02:49:39.775Z,18.45
2018-02-14T02:52:06.455Z,19.30
2018-02-14T02:54:33.058Z,23.20
2018-02-14T02:57:00.399Z,28.17
2018-02-14T02:59:27.766Z,25.83
2018-02-14T03:01:54.421Z,20.55
2018-02-14T03:04:21.019Z,20.45
2018-02-14T03:06:47.669Z,28.62
2018-02-14T03:09:14.298Z,28.55
2018-02-14T03:11:41.639Z,29.67
2018-02-14T03:14:08.582Z,27.62
2018-02-14T03:16:35.140Z,27.95
2018-02-14T03:19:01.733Z,27.10
2018-02-14T03:21:29.103Z,25.75
2018-02-14T03:23:55.972Z,26.27
2018-02-14T03:26:22.610Z,24.55
2018-02-14T03:28:49.952Z,27.17
2018-02-14T03:31:16.653Z,30.55
2018-02-14T03:33:43.241Z,21.62
2018-02-14T03:36:10.582Z,24.87
2018-02-14T03:38:37.190Z,29.37
2018-02-14T03:41:03.959Z,27.62
2018-02-14T03:43:30.615Z,26.55
2018-02-14T03:45:57.961Z,27.60
2018-02-14T03:48:24.607Z,25.25
2018-02-14T03:50:51.944Z,23.55
2018-02-14T03:53:18.535Z,27.02
2018-02-14T03:55:45.131Z,36.67
2018-02-14T03:58:12.487Z,31.17
2018-02-14T04:00:39.086Z,23.08
2018-02-14T04:03:06.493Z,25.05
2018-02-14T04:05:33.086Z,23.85
2018-02-14T04:07:59.701Z,19.30
2018-02-14T04:10:26.299Z,21.25
2018-02-14T04:12:52.909Z,25.35
2018-02-14T04:15:19.502Z,25.83
2018-02-14T04:17:46.117Z,23.80
2018-02-14T04:20:12.690Z,23.90
2018-02-14T04:22:39.290Z,32.50
2018-02-14T04:25:05.930Z,31.23
2018-02-14T04:27:32.703Z,31.05
2018-02-14T04:29:59.318Z,27.95
2018-02-14T04:32:25.922Z,28.35
2018-02-14T04:34:53.246Z,28.23
2018-02-14T04:37:19.847Z,32.13
2018-02-14T04:39:46.503Z,33.85
2018-02-14T04:42:13.131Z,31.10
2018-02-14T04:44:39.902Z,28.25
2018-02-14T04:47:06.566Z,27.60
2018-02-14T04:49:33.896Z,29.58
2018-02-14T04:52:01.281Z,34.28
2018-02-14T04:54:27.881Z,32.17
2018-02-14T04:56:54.536Z,30.12
2018-02-14T04:59:21.286Z,35.80
2018-02-14T05:01:48.646Z,29.23
2018-02-14T05:04:15.237Z,33.10
2018-02-14T05:06:41.873Z,27.52
2018-02-14T05:09:08.480Z,26.62
2018-02-14T05:11:35.133Z,28.38
2018-02-14T05:14:01.731Z,24.37
2018-02-14T05:16:28.392Z,21.83
2018-02-14T05:18:54.985Z,24.27
2018-02-14T05:21:21.724Z,26.85
2018-02-14T05:23:48.343Z,24.20
2018-02-14T05:26:15.723Z,29.67
2018-02-14T05:28:42.387Z,28.77
2018-02-14T05:31:09.008Z,32.10
2018-02-14T05:33:36.399Z,29.75
2018-02-14T05:36:03.042Z,31.50
2018-02-14T05:38:29.670Z,29.85
2018-02-14T05:40:56.311Z,26.12
2018-02-14T05:43:22.930Z,28.75
2018-02-14T05:45:49.578Z,31.23
2018-02-14T05:48:16.150Z,28.87
2018-02-14T05:50:42.746Z,33.40
2018-02-14T05:53:09.372Z,32.92
2018-02-14T05:55:35.996Z,32.58
2018-02-14T05:58:03.375Z,30.67
2018-02-14T06:00:30.076Z,32.47
2018-02-14T06:02:56.695Z,25.90
2018-02-14T06:05:23.339Z,29.77
2018-02-14T06:07:49.939Z,29.58
2018-02-14T06:10:16.566Z,27.55
2018-02-14T06:12:43.883Z,26.83
2018-02-14T06:15:11.249Z,28.00
2018-02-14T06:17:38.624Z,32.13
2018-02-14T06:20:05.241Z,33.20
2018-02-14T06:22:31.863Z,27.37
2018-02-14T06:24:59.256Z,28.00
2018-02-14T06:27:25.900Z,37.38
2018-02-14T06:29:52.910Z,28.85
2018-02-14T06:32:19.586Z,31.12
2018-02-14T06:34:46.200Z,30.00
2018-02-14T06:37:13.568Z,36.55
2018-02-14T06:39:40.218Z,29.80
2018-02-14T06:42:06.919Z,26.85
2018-02-14T06:44:33.574Z,34.28
2018-02-14T06:47:00.330Z,29.65
2018-02-14T06:49:26.933Z,28.87
2018-02-14T06:51:53.637Z,25.50
2018-02-14T06:54:20.249Z,27.20
2018-02-14T06:56:46.859Z,31.37
2018-02-14T06:59:14.251Z,36.67
2018-02-14T07:01:40.923Z,32.45
2018-02-14T07:04:07.522Z,33.92
2018-02-14T07:06:34.218Z,31.83
2018-02-14T07:09:01.729Z,27.13
2018-02-14T07:11:28.387Z,26.90
2018-02-14T07:13:55.106Z,33.05
2018-02-14T07:16:22.158Z,31.73
2018-02-14T07:18:48.905Z,27.40
2018-02-14T07:21:15.690Z,28.40
2018-02-14T07:23:42.468Z,25.23
2018-02-14T07:26:09.123Z,26.98
2018-02-14T07:28:35.795Z,37.38
2018-02-14T07:31:02.397Z,36.45
2018-02-14T07:33:29.049Z,30.27
2018-02-14T07:35:55.678Z,30.75
2018-02-14T07:38:22.293Z,24.98
2018-02-14T07:40:48.974Z,28.77
2018-02-14T07:43:15.642Z,23.80
2018-02-14T07:45:43.022Z,26.75
2018-02-14T07:48:09.671Z,29.90
2018-02-14T07:50:37.062Z,25.45
2018-02-14T07:53:03.724Z,24.75
2018-02-14T07:55:30.369Z,24.30
2018-02-14T07:57:56.978Z,25.67
2018-02-14T08:00:24.334Z,22.40
2018-02-14T08:02:50.978Z,30.92
2018-02-14T08:05:17.567Z,23.40
2018-02-14T08:07:44.152Z,23.90
2018-02-14T08:10:10.827Z,22.52
2018-02-14T08:12:37.426Z,25.88
2018-02-14T08:15:04.803Z,24.17
2018-02-14T08:17:31.430Z,16.23
2018-02-14T08:19:58.764Z,18.67
2018-02-14T08:22:25.388Z,16.05
2018-02-14T08:24:52.011Z,18.50
2018-02-14T08:27:18.655Z,24.65
2018-02-14T08:29:45.236Z,18.25
2018-02-14T08:32:11.907Z,15.23
2018-02-14T08:34:38.592Z,20.30
2018-02-14T08:37:05.354Z,16.00
2018-02-14T08:39:32.728Z,19.98
2018-02-14T08:41:59.496Z,18.27
2018-02-14T08:44:26.071Z,22.37
2018-02-14T08:46:52.693Z,18.00
2018-02-14T08:49:19.307Z,16.85
2018-02-14T08:51:45.910Z,18.30
2018-02-14T08:54:13.260Z,21.12
2018-02-14T08:56:39.830Z,19.83
2018-02-14T08:59:06.434Z,17.80
2018-02-14T09:01:32.991Z,21.00
2018-02-14T09:03:59.610Z,17.00
2018-02-14T09:06:26.188Z,15.15
2018-02-14T09:08:52.797Z,21.10
2018-02-14T09:11:19.386Z,27.98
2018-02-14T09:13:46.714Z,27.90
2018-02-14T09:16:15.088Z,19.87
2018-02-14T09:18:41.706Z,22.65
2018-02-14T09:21:08.317Z,20.65
2018-02-14T09:23:34.951Z,17.12
2018-02-14T09:26:02.311Z,13.45
2018-02-14T09:28:28.995Z,16.58
2018-02-14T09:30:55.612Z,20.83
2018-02-14T09:33:22.208Z,28.75
2018-02-14T09:35:49.650Z,26.98
2018-02-14T09:38:16.223Z,17.75
2018-02-14T09:40:42.859Z,16.02
2018-02-14T09:43:09.462Z,16.67
2018-02-14T09:45:36.074Z,16.83
2018-02-14T09:48:02.725Z,14.25
2018-02-14T09:50:29.330Z,15.95
2018-02-14T09:52:56.274Z,12.60
2018-02-14T09:55:22.937Z,16.15
2018-02-14T09:57:49.513Z,16.05
2018-02-14T10:00:16.168Z,18.42
2018-02-14T10:02:42.783Z,20.52
2018-02-14T10:05:10.179Z,16.75
2018-02-14T10:07:36.741Z,13.25
2018-02-14T10:10:03.335Z,13.62
2018-02-14T10:12:30.066Z,15.95
2018-02-14T10:14:57.402Z,14.77
2018-02-14T10:17:24.727Z,12.95
2018-02-14T10:19:52.121Z,14.10
2018-02-14T10:22:19.459Z,12.82
2018-02-14T10:24:46.077Z,14.35
2018-02-14T10:27:12.646Z,13.73
2018-02-14T10:29:40.233Z,15.23
2018-02-14T10:32:06.843Z,14.23
2018-02-14T10:34:34.195Z,16.15
2018-02-14T10:37:01.535Z,15.25
2018-02-14T10:39:28.110Z,15.93
2018-02-14T10:41:54.806Z,16.40
2018-02-14T10:44:21.437Z,17.75
2018-02-14T10:46:48.050Z,16.08
2018-02-14T10:49:14.653Z,16.15
2018-02-14T10:51:41.262Z,17.08
2018-02-14T10:54:07.922Z,17.02
2018-02-14T10:56:34.532Z,17.02
2018-02-14T10:59:01.145Z,15.85
2018-02-14T11:01:33.755Z,20.62
2018-02-14T11:06:53.745Z,14.63
2018-02-14T11:09:20.333Z,15.30
2018-02-14T11:11:46.991Z,15.00
2018-02-14T11:14:13.710Z,13.15
2018-02-14T11:16:40.310Z,15.88
2018-02-14T11:19:06.982Z,17.77
2018-02-14T11:21:33.618Z,27.40
2018-02-14T11:24:00.203Z,19.80
2018-02-14T11:26:26.830Z,19.02
2018-02-14T11:28:53.425Z,20.73
2018-02-14T11:31:20.124Z,22.23
2018-02-14T11:33:46.786Z,19.33
2018-02-14T11:36:13.375Z,20.35
2018-02-14T11:38:39.994Z,20.88
2018-02-14T11:41:06.596Z,21.20
2018-02-14T11:43:33.200Z,17.67
2018-02-14T11:45:59.837Z,18.75
2018-02-14T11:48:26.450Z,16.92
2018-02-14T11:50:53.038Z,14.18
2018-02-14T11:53:19.723Z,12.90
2018-02-14T11:55:46.317Z,13.07
2018-02-14T11:58:12.950Z,14.07
2018-02-14T12:00:39.645Z,11.10
2018-02-14T12:03:06.385Z,12.50
2018-02-14T12:05:32.951Z,14.23
2018-02-14T12:08:00.321Z,13.10
2018-02-14T12:10:27.650Z,13.40
2018-02-14T12:12:54.319Z,12.43
2018-02-14T12:15:20.950Z,11.88
2018-02-14T12:17:48.298Z,13.75
2018-02-14T12:20:14.954Z,13.10
2018-02-14T12:22:41.571Z,14.32
2018-02-14T12:25:09.067Z,12.88
2018-02-14T12:27:35.783Z,14.35
2018-02-14T12:30:02.523Z,12.77
2018-02-14T12:32:29.112Z,13.27
2018-02-14T12:34:55.687Z,12.40
2018-02-14T12:37:23.178Z,11.48
2018-02-14T12:39:49.795Z,12.57
2018-02-14T12:42:16.414Z,11.02
2018-02-14T12:44:43.048Z,11.63
2018-02-14T12:47:09.640Z,10.65
2018-02-14T12:49:36.296Z,8.98
2018-02-14T12:52:02.928Z,7.03
2018-02-14T12:54:30.317Z,8.27
2018-02-14T12:56:57.716Z,7.53
2018-02-14T12:59:24.373Z,7.65
2018-02-14T13:01:51.119Z,9.35
2018-02-14T13:04:17.754Z,8.63
2018-02-14T13:06:44.374Z,10.95
2018-02-14T13:09:11.020Z,9.88
2018-02-14T13:11:37.792Z,11.40
2018-02-14T13:14:04.370Z,12.27
2018-02-14T13:16:30.988Z,12.18
2018-02-14T13:18:58.343Z,13.23
2018-02-14T13:21:25.702Z,14.38
2018-02-14T13:23:52.313Z,13.57
2018-02-14T13:26:18.978Z,14.27
2018-02-14T13:28:45.626Z,12.85
2018-02-14T13:31:12.258Z,12.10
2018-02-14T13:33:38.858Z,14.10
2018-02-14T13:36:05.492Z,17.27
2018-02-14T13:38:32.095Z,22.23
2018-02-14T13:40:58.669Z,16.37
2018-02-14T13:43:26.055Z,22.08
2018-02-14T13:45:53.419Z,17.17
2018-02-14T13:48:21.156Z,18.87
2018-02-14T13:50:48.496Z,22.58
2018-02-14T13:53:15.913Z,20.27
2018-02-14T13:55:42.539Z,30.08
2018-02-14T13:58:09.113Z,17.48
2018-02-14T14:00:35.812Z,16.35
2018-02-14T14:03:02.430Z,21.33
2018-02-14T14:05:29.857Z,14.40
2018-02-14T14:07:56.559Z,17.00
2018-02-14T14:10:23.199Z,17.35
2018-02-14T14:12:49.799Z,12.37
2018-02-14T14:15:16.459Z,10.50
2018-02-14T14:17:43.114Z,9.48
2018-02-14T14:20:09.738Z,14.52
2018-02-14T14:22:37.170Z,12.77
2018-02-14T14:25:04.491Z,12.52
2018-02-14T14:27:31.082Z,14.18
2018-02-14T14:29:57.686Z,12.05
2018-02-14T14:32:24.290Z,13.82
2018-02-14T14:34:50.866Z,13.23
2018-02-14T14:37:17.558Z,12.20
2018-02-14T14:39:44.168Z,13.10
2018-02-14T14:42:10.851Z,11.95
2018-02-14T14:44:37.419Z,13.95
2018-02-14T14:47:04.739Z,11.93
2018-02-14T14:49:31.557Z,13.25
2018-02-14T14:51:58.170Z,13.13
2018-02-14T14:54:24.740Z,10.45
2018-02-14T14:56:51.394Z,10.63
2018-02-14T14:59:17.984Z,9.02
2018-02-14T15:01:44.582Z,10.88
2018-02-14T15:04:11.934Z,15.48
2018-02-14T15:06:38.542Z,12.30
2018-02-14T15:09:05.149Z,14.77
2018-02-14T15:11:31.734Z,11.57
2018-02-14T15:13:58.362Z,11.80
2018-02-14T15:16:25.026Z,16.80
2018-02-14T15:18:51.617Z,20.98
2018-02-14T15:21:18.207Z,20.75
2018-02-14T15:23:44.824Z,16.70
2018-02-14T15:26:12.243Z,13.82
2018-02-14T15:28:38.968Z,14.52
2018-02-14T15:31:05.582Z,13.38
2018-02-14T15:33:32.914Z,12.37
2018-02-14T15:35:59.555Z,13.05
2018-02-14T15:38:26.162Z,10.88
2018-02-14T15:40:52.890Z,11.90
2018-02-14T15:43:19.501Z,14.30
2018-02-14T15:45:46.103Z,11.63
2018-02-14T15:48:12.700Z,11.32
2018-02-14T15:50:39.309Z,12.70
2018-02-14T15:53:05.904Z,13.48
2018-02-14T15:55:32.503Z,14.65
2018-02-14T15:57:59.125Z,16.02
2018-02-14T16:00:25.718Z,13.60
2018-02-14T16:02:52.343Z,16.73
2018-02-14T16:05:18.943Z,19.73
2018-02-14T16:07:45.541Z,21.05
2018-02-14T16:10:12.956Z,18.90
2018-02-14T16:12:39.600Z,14.57
2018-02-14T16:15:06.228Z,15.02
2018-02-14T16:17:32.885Z,16.30
2018-02-14T16:19:59.464Z,13.10
2018-02-14T16:22:26.846Z,16.27
2018-02-14T16:24:53.427Z,18.30
2018-02-14T16:27:20.022Z,17.58
2018-02-14T16:29:46.610Z,17.67
2018-02-14T16:32:14.030Z,16.20
2018-02-14T16:34:40.645Z,18.73
2018-02-14T16:37:07.267Z,24.12
2018-02-14T16:39:33.907Z,23.00
2018-02-14T16:42:00.525Z,23.92
2018-02-14T16:44:27.851Z,23.52
2018-02-14T16:46:54.591Z,19.90
2018-02-14T16:49:22.675Z,30.42
2018-02-14T16:51:50.019Z,29.45
2018-02-14T16:54:16.625Z,26.92
2018-02-14T16:56:43.209Z,29.92
2018-02-14T16:59:10.553Z,33.95
2018-02-14T17:01:37.881Z,25.33
2018-02-14T17:04:04.522Z,21.48
2018-02-14T17:06:31.155Z,26.40
2018-02-14T17:08:57.790Z,22.13
2018-02-14T17:11:24.366Z,20.10
2018-02-14T17:13:51.981Z,23.98
2018-02-14T17:16:18.637Z,24.67
2018-02-14T17:18:45.243Z,23.00
2018-02-14T17:21:11.853Z,24.63
2018-02-14T17:23:39.190Z,23.02
2018-02-14T17:26:06.614Z,21.25
2018-02-14T17:28:33.254Z,22.87
2018-02-14T17:30:59.912Z,26.17
2018-02-14T17:33:26.506Z,26.83
2018-02-14T17:35:53.116Z,32.80
2018-02-14T17:38:19.708Z,23.12
2018-02-14T17:40:46.336Z,30.88
2018-02-14T17:43:12.981Z,30.00
2018-02-14T17:45:39.574Z,27.15
2018-02-14T17:48:06.175Z,21.85
2018-02-14T17:50:32.820Z,21.73
2018-02-14T17:53:00.169Z,27.08
2018-02-14T17:55:27.502Z,21.58
2018-02-14T17:57:54.110Z,34.30
2018-02-14T18:00:20.768Z,23.45
2018-02-14T18:02:47.373Z,24.12
2018-02-14T18:05:13.974Z,22.08
2018-02-14T18:07:41.330Z,20.25
2018-02-14T18:10:08.000Z,19.77
2018-02-14T18:12:34.645Z,20.37
2018-02-14T18:15:01.241Z,20.12
2018-02-14T18:17:27.892Z,19.83
2018-02-14T18:19:55.270Z,19.23
2018-02-14T18:22:21.877Z,21.15
2018-02-14T18:24:49.244Z,19.60
2018-02-14T18:27:15.835Z,20.00
2018-02-14T18:29:42.446Z,22.45
2018-02-14T18:32:09.060Z,18.65
2018-02-14T18:34:35.651Z,22.00
2018-02-14T18:37:02.314Z,26.90
2018-02-14T18:39:29.631Z,22.08
2018-02-14T18:41:56.285Z,29.33
2018-02-14T18:44:22.878Z,26.42
2018-02-14T18:46:49.486Z,24.30
2018-02-14T18:49:16.126Z,21.02
2018-02-14T18:51:43.026Z,26.62
2018-02-14T18:54:09.646Z,18.50
2018-02-14T18:56:36.252Z,19.35
2018-02-14T18:59:03.631Z,22.62
2018-02-14T19:01:30.250Z,22.13
2018-02-14T19:03:56.882Z,21.00
2018-02-14T19:06:23.501Z,24.87
2018-02-14T19:08:50.102Z,27.65
2018-02-14T19:11:17.036Z,26.45
2018-02-14T19:13:43.720Z,26.20
2018-02-14T19:16:10.364Z,24.70
2018-02-14T19:18:36.986Z,25.02
2018-02-14T19:21:04.712Z,25.00
2018-02-14T19:23:32.302Z,22.98
2018-02-14T19:25:58.917Z,23.33
2018-02-14T19:28:25.531Z,24.15
2018-02-14T19:30:52.231Z,29.52
2018-02-14T19:33:18.862Z,29.17
2018-02-14T19:35:46.250Z,27.62
2018-02-14T19:38:12.950Z,30.30
2018-02-14T19:40:39.601Z,32.00
2018-02-14T19:43:06.476Z,25.67
2018-02-14T19:45:33.122Z,28.33
2018-02-14T19:47:59.756Z,22.95
2018-02-14T19:50:26.482Z,24.85
2018-02-14T19:52:53.117Z,24.40
2018-02-14T19:55:19.766Z,22.73
2018-02-14T19:57:46.393Z,22.80
2018-02-14T20:00:13.064Z,25.40
2018-02-14T20:02:39.726Z,23.90
2018-02-14T20:05:06.517Z,23.12
2018-02-14T20:07:33.157Z,22.23
2018-02-14T20:09:59.772Z,21.20
2018-02-14T20:12:27.254Z,21.12
2018-02-14T20:14:53.992Z,18.55
2018-02-14T20:17:20.639Z,21.83
2018-02-14T20:19:47.256Z,20.37
2018-02-14T20:22:13.926Z,22.00
2018-02-14T20:24:40.600Z,20.83
2018-02-14T20:27:07.989Z,23.85
2018-02-14T20:29:34.610Z,20.45
2018-02-14T20:32:02.219Z,19.60
2018-02-14T20:34:28.967Z,23.15
2018-02-14T20:36:56.336Z,20.12
2018-02-14T20:39:23.058Z,20.55
2018-02-14T20:41:49.685Z,20.48
2018-02-14T20:44:16.310Z,18.62
2018-02-14T20:46:42.958Z,17.27
2018-02-14T20:49:09.587Z,19.30
2018-02-14T20:51:36.210Z,28.38
2018-02-14T20:54:02.818Z,21.08
2018-02-14T20:56:30.171Z,19.12
2018-02-14T20:58:56.782Z,17.12
2018-02-14T21:01:23.423Z,17.23
2018-02-14T21:03:50.010Z,15.25
2018-02-14T21:06:16.638Z,16.65
2018-02-14T21:08:43.284Z,15.80
2018-02-14T21:11:09.908Z,15.98
2018-02-14T21:13:37.222Z,18.25
2018-02-14T21:16:03.842Z,16.02
2018-02-14T21:18:30.832Z,16.60
2018-02-14T21:20:58.217Z,12.18
2018-02-14T21:23:24.837Z,12.02
2018-02-14T21:25:51.502Z,21.92
2018-02-14T21:28:18.126Z,14.15
2018-02-14T21:30:44.746Z,11.40
2018-02-14T21:33:11.346Z,13.07
2018-02-14T21:35:37.966Z,13.90
2018-02-14T21:38:04.665Z,12.50
2018-02-14T21:40:32.015Z,12.98
2018-02-14T21:42:58.687Z,12.98
2018-02-14T21:45:25.327Z,12.18
2018-02-14T21:47:52.194Z,13.02
2018-02-14T21:50:19.577Z,12.95
2018-02-14T21:52:46.973Z,11.65
2018-02-14T21:55:13.631Z,12.50
2018-02-14T21:57:40.246Z,13.48
2018-02-14T22:00:06.858Z,12.68
2018-02-14T22:02:33.449Z,11.30
2018-02-14T22:05:00.099Z,10.50
2018-02-14T22:07:26.678Z,13.65
2018-02-14T22:09:53.384Z,13.45
2018-02-14T22:12:19.962Z,13.80
2018-02-14T22:14:46.538Z,9.00
2018-02-14T22:17:13.232Z,10.20
2018-02-14T22:19:39.863Z,11.45
2018-02-14T22:22:06.532Z,9.60
2018-02-14T22:24:33.109Z,9.13
2018-02-14T22:26:59.702Z,9.38
2018-02-14T22:29:27.095Z,7.62
2018-02-14T22:31:53.741Z,13.50
2018-02-14T22:34:20.402Z,9.73
2018-02-14T22:36:47.798Z,7.25
2018-02-14T22:39:14.403Z,8.60
2018-02-14T22:41:41.090Z,8.45
2018-02-14T22:44:07.689Z,6.43
2018-02-14T22:46:34.275Z,9.50
2018-02-14T22:49:01.683Z,8.48
2018-02-14T22:51:28.280Z,8.75
2018-02-14T22:53:54.919Z,8.77
2018-02-14T22:56:21.644Z,8.93
2018-02-14T22:58:48.306Z,10.60
2018-02-14T23:01:14.937Z,11.27
2018-02-14T23:03:41.577Z,7.82
2018-02-14T23:06:08.932Z,7.32
2018-02-14T23:08:35.539Z,9.18
2018-02-14T23:11:02.146Z,11.27
2018-02-14T23:13:28.762Z,9.60
2018-02-14T23:15:55.386Z,8.88
2018-02-14T23:18:22.007Z,9.15
2018-02-14T23:20:48.589Z,8.93
2018-02-14T23:23:15.199Z,10.25
2018-02-14T23:25:41.800Z,8.82
2018-02-14T23:28:08.423Z,11.35
2018-02-14T23:30:35.072Z,8.45
2018-02-14T23:33:01.674Z,15.15
2018-02-14T23:35:28.302Z,9.50
2018-02-14T23:37:54.927Z,9.48
2018-02-14T23:40:22.339Z,8.68
2018-02-14T23:42:48.963Z,8.23
2018-02-14T23:45:15.578Z,9.80
2018-02-14T23:47:42.198Z,8.60
2018-02-14T23:50:08.810Z,10.40
2018-02-14T23:52:36.239Z,7.50
2018-02-14T23:55:02.865Z,8.85
2018-02-14T23:57:29.442Z,9.52
2018-02-14T23:59:56.797Z,7.50
